createdAt,value
2022-10-30T00:02:47.987Z,14.85
2022-10-30T00:05:53.307Z,15.18
2022-10-30T00:08:57.517Z,15.38
2022-10-30T00:12:02.115Z,15.41
2022-10-30T00:15:09.116Z,15.20
2022-10-30T00:18:13.483Z,15.29
2022-10-30T00:21:18.662Z,15.13
2022-10-30T00:24:22.664Z,15.02
2022-10-30T00:27:26.816Z,14.15
2022-10-30T00:30:32.415Z,14.00
2022-10-30T00:33:36.634Z,14.26
2022-10-30T00:36:41.497Z,14.37
2022-10-30T00:39:45.593Z,14.55
2022-10-30T00:42:49.712Z,14.62
2022-10-30T00:45:55.578Z,14.86
2022-10-30T00:49:04.878Z,14.92
2022-10-30T00:52:12.093Z,14.41
2022-10-30T00:55:21.404Z,14.50
2022-10-30T00:58:31.294Z,14.40
2022-10-30T01:01:40.601Z,14.52
2022-10-30T01:04:46.533Z,14.74
2022-10-30T01:07:50.687Z,14.94
2022-10-30T01:10:54.882Z,14.90
2022-10-30T01:14:02.176Z,15.04
2022-10-30T01:17:31.851Z,15.08
2022-10-30T01:20:55.722Z,14.96
2022-10-30T01:24:20.306Z,14.82
2022-10-30T01:27:37.700Z,14.89
2022-10-30T01:30:59.256Z,14.84
2022-10-30T01:34:18.912Z,14.83
2022-10-30T01:37:30.393Z,14.76
2022-10-30T01:40:35.280Z,14.54
2022-10-30T01:43:41.068Z,14.62
2022-10-30T01:47:01.234Z,14.82
2022-10-30T01:50:23.382Z,14.71
2022-10-30T01:53:42.682Z,14.75
2022-10-30T01:56:56.811Z,14.76
2022-10-30T02:00:06.220Z,14.83
2022-10-30T02:03:17.365Z,14.70
2022-10-30T02:06:24.141Z,13.77
2022-10-30T02:09:28.533Z,13.50
2022-10-30T02:12:33.586Z,13.88
2022-10-30T02:15:38.595Z,13.89
2022-10-30T02:18:43.105Z,14.08
2022-10-30T02:21:48.903Z,14.16
2022-10-30T02:24:53.285Z,14.33
2022-10-30T02:28:01.217Z,14.37
2022-10-30T02:31:08.268Z,14.56
2022-10-30T02:34:12.552Z,14.36
2022-10-30T02:37:18.287Z,14.18
2022-10-30T02:40:22.434Z,14.21
2022-10-30T02:43:26.724Z,14.47
2022-10-30T02:46:30.894Z,14.45
2022-10-30T02:49:35.086Z,14.54
2022-10-30T02:52:40.520Z,14.57
2022-10-30T02:55:45.966Z,14.03
2022-10-30T02:58:50.121Z,14.34
2022-10-30T03:01:55.635Z,13.85
2022-10-30T03:04:59.756Z,13.98
2022-10-30T03:08:05.663Z,13.82
2022-10-30T03:11:11.607Z,13.89
2022-10-30T03:14:15.794Z,14.09
2022-10-30T03:17:20.534Z,14.29
2022-10-30T03:20:26.200Z,14.31
2022-10-30T03:23:32.087Z,14.35
2022-10-30T03:26:38.094Z,14.24
2022-10-30T03:29:44.007Z,14.27
2022-10-30T03:32:49.623Z,14.16
2022-10-30T03:35:54.186Z,13.40
2022-10-30T03:38:59.736Z,13.59
2022-10-30T03:42:04.789Z,13.93
2022-10-30T03:45:10.196Z,13.64
2022-10-30T03:48:14.448Z,12.96
2022-10-30T03:51:19.327Z,13.48
2022-10-30T03:54:25.720Z,13.63
2022-10-30T03:57:30.071Z,13.97
2022-10-30T04:00:45.594Z,14.24
2022-10-30T04:03:50.020Z,14.09
2022-10-30T04:06:54.824Z,14.18
2022-10-30T04:10:01.412Z,14.13
2022-10-30T04:13:08.952Z,14.04
2022-10-30T04:16:17.468Z,13.99
2022-10-30T04:19:22.843Z,13.85
2022-10-30T04:22:27.319Z,13.68
2022-10-30T04:25:35.521Z,13.86
2022-10-30T04:28:39.673Z,13.81
2022-10-30T04:31:44.943Z,12.85
2022-10-30T04:34:51.173Z,12.27
2022-10-30T04:37:55.873Z,12.59
2022-10-30T04:41:01.468Z,12.63
2022-10-30T04:44:21.033Z,12.68
2022-10-30T04:47:25.388Z,12.67
2022-10-30T04:50:29.912Z,13.11
2022-10-30T04:53:34.367Z,13.34
2022-10-30T04:56:44.671Z,13.40
2022-10-30T04:59:49.234Z,12.90
2022-10-30T05:02:53.524Z,13.49
2022-10-30T05:06:00.724Z,13.47
2022-10-30T05:09:05.694Z,13.45
2022-10-30T05:12:19.738Z,13.21
2022-10-30T05:15:30.692Z,13.58
2022-10-30T05:18:35.371Z,13.41
2022-10-30T05:21:39.720Z,13.34
2022-10-30T05:24:43.791Z,12.77
2022-10-30T05:27:49.692Z,13.32
2022-10-30T05:30:56.174Z,13.41
2022-10-30T05:34:26.949Z,13.41
2022-10-30T05:37:35.105Z,13.62
2022-10-30T05:40:42.024Z,13.68
2022-10-30T05:43:48.431Z,14.15
2022-10-30T05:46:52.842Z,14.46
2022-10-30T05:50:11.868Z,14.78
2022-10-30T05:53:23.674Z,14.82
2022-10-30T05:56:29.332Z,14.97
2022-10-30T05:59:36.403Z,15.10
2022-10-30T06:02:40.883Z,15.54
2022-10-30T06:05:47.640Z,15.70
2022-10-30T06:08:52.639Z,15.86
2022-10-30T06:12:19.240Z,16.08
2022-10-30T06:15:45.212Z,16.60
2022-10-30T06:18:49.533Z,16.76
2022-10-30T06:21:55.171Z,17.06
2022-10-30T06:25:10.910Z,17.32
2022-10-30T06:28:38.440Z,17.41
2022-10-30T06:31:44.274Z,17.52
2022-10-30T06:34:49.669Z,17.66
2022-10-30T06:37:56.589Z,17.71
2022-10-30T06:41:01.784Z,17.86
2022-10-30T06:44:26.263Z,18.36
2022-10-30T06:47:36.712Z,18.48
2022-10-30T06:50:40.968Z,18.54
2022-10-30T06:53:45.500Z,18.84
2022-10-30T06:57:08.163Z,19.18
2022-10-30T07:00:30.575Z,19.12
2022-10-30T07:03:54.613Z,19.43
2022-10-30T07:07:00.269Z,19.58
2022-10-30T07:10:05.464Z,20.05
2022-10-30T07:13:29.962Z,19.61
2022-10-30T07:16:42.169Z,20.14
2022-10-30T07:19:51.173Z,20.35
2022-10-30T07:22:55.749Z,20.41
2022-10-30T07:26:04.180Z,20.67
2022-10-30T07:29:14.880Z,21.00
2022-10-30T07:32:20.850Z,21.05
2022-10-30T07:35:44.901Z,21.21
2022-10-30T07:39:07.308Z,21.26
2022-10-30T07:42:34.897Z,21.25
2022-10-30T07:45:58.020Z,21.56
2022-10-30T07:49:29.610Z,21.75
2022-10-30T07:52:43.908Z,21.95
2022-10-30T07:55:48.240Z,22.26
2022-10-30T07:59:24.879Z,22.15
2022-10-30T08:02:36.448Z,22.21
2022-10-30T08:05:56.642Z,21.96
2022-10-30T08:09:12.483Z,22.73
2022-10-30T08:12:17.621Z,22.55
2022-10-30T08:15:22.540Z,22.93
2022-10-30T08:18:27.390Z,22.85
2022-10-30T08:21:31.823Z,22.73
2022-10-30T08:24:42.337Z,23.40
2022-10-30T08:27:57.130Z,23.80
2022-10-30T08:31:04.333Z,23.61
2022-10-30T08:34:28.400Z,23.78
2022-10-30T08:37:33.572Z,24.05
2022-10-30T08:40:39.178Z,23.98
2022-10-30T08:43:44.594Z,24.41
2022-10-30T08:46:48.867Z,24.53
2022-10-30T08:49:55.469Z,24.99
2022-10-30T08:53:04.611Z,24.93
2022-10-30T08:56:12.125Z,25.27
2022-10-30T08:59:36.539Z,25.40
2022-10-30T09:02:41.609Z,25.47
2022-10-30T09:06:04.018Z,25.48
2022-10-30T09:09:26.509Z,25.63
2022-10-30T09:12:35.837Z,25.97
2022-10-30T09:15:39.945Z,25.84
2022-10-30T09:18:44.345Z,26.12
2022-10-30T09:21:49.196Z,26.25
2022-10-30T09:24:53.899Z,26.41
2022-10-30T09:28:19.545Z,26.11
2022-10-30T09:31:55.840Z,26.45
2022-10-30T09:35:02.380Z,26.16
2022-10-30T09:38:17.646Z,26.43
2022-10-30T09:41:41.058Z,26.52
2022-10-30T09:45:23.344Z,26.62
2022-10-30T09:48:37.920Z,26.25
2022-10-30T09:52:23.700Z,26.78
2022-10-30T09:55:36.395Z,27.07
2022-10-30T09:58:48.826Z,26.93
2022-10-30T10:02:03.003Z,26.80
2022-10-30T10:05:17.277Z,27.01
2022-10-30T10:08:34.137Z,27.24
2022-10-30T10:12:00.698Z,26.86
2022-10-30T10:15:13.245Z,27.07
2022-10-30T10:18:24.852Z,27.27
2022-10-30T10:21:31.008Z,27.40
2022-10-30T10:24:38.598Z,27.42
2022-10-30T10:27:55.569Z,27.46
2022-10-30T10:31:12.620Z,27.75
2022-10-30T10:34:37.638Z,28.02
2022-10-30T10:37:50.814Z,28.12
2022-10-30T10:41:01.308Z,27.83
2022-10-30T10:44:27.318Z,28.10
2022-10-30T10:47:51.038Z,27.39
2022-10-30T10:51:00.432Z,27.98
2022-10-30T10:54:12.169Z,27.94
2022-10-30T10:57:26.067Z,27.70
2022-10-30T11:00:32.258Z,27.93
2022-10-30T11:03:47.485Z,28.06
2022-10-30T11:06:56.028Z,28.13
2022-10-30T11:10:00.945Z,28.34
2022-10-30T11:13:05.195Z,28.43
2022-10-30T11:16:20.345Z,27.45
2022-10-30T11:19:25.287Z,28.10
2022-10-30T11:22:36.176Z,28.04
2022-10-30T11:25:40.855Z,28.09
2022-10-30T11:28:50.514Z,28.25
2022-10-30T11:32:03.478Z,28.39
2022-10-30T11:35:14.925Z,28.29
2022-10-30T11:38:22.539Z,28.30
2022-10-30T11:41:28.008Z,28.47
2022-10-30T11:44:36.663Z,28.07
2022-10-30T11:47:41.182Z,28.42
2022-10-30T11:50:51.330Z,28.28
2022-10-30T11:53:57.109Z,28.23
2022-10-30T11:57:01.139Z,28.21
2022-10-30T12:00:09.975Z,28.30
2022-10-30T12:03:31.148Z,28.36
2022-10-30T12:06:35.480Z,28.57
2022-10-30T12:09:50.134Z,28.38
2022-10-30T12:12:54.465Z,28.28
2022-10-30T12:16:14.679Z,28.37
2022-10-30T12:19:21.435Z,28.38
2022-10-30T12:22:29.063Z,28.24
2022-10-30T12:25:39.895Z,28.31
2022-10-30T12:28:55.280Z,28.42
2022-10-30T12:32:04.008Z,28.05
2022-10-30T12:35:18.805Z,28.00
2022-10-30T12:38:28.629Z,27.85
2022-10-30T12:41:41.378Z,28.26
2022-10-30T12:44:49.009Z,28.30
2022-10-30T12:47:59.134Z,28.39
2022-10-30T12:51:19.758Z,28.28
2022-10-30T12:54:35.670Z,28.32
2022-10-30T12:57:48.346Z,28.49
2022-10-30T13:00:59.238Z,28.46
2022-10-30T13:04:11.221Z,28.49
2022-10-30T13:07:21.807Z,28.20
2022-10-30T13:10:31.318Z,28.01
2022-10-30T13:13:39.895Z,28.25
2022-10-30T13:16:44.307Z,28.47
2022-10-30T13:19:49.116Z,28.50
2022-10-30T13:22:59.197Z,28.48
2022-10-30T13:26:13.597Z,28.38
2022-10-30T13:29:25.821Z,28.15
2022-10-30T13:32:40.809Z,28.02
2022-10-30T13:35:50.099Z,27.90
2022-10-30T13:39:01.595Z,28.03
2022-10-30T13:42:22.406Z,28.00
2022-10-30T13:45:56.919Z,27.81
2022-10-30T13:49:15.611Z,27.82
2022-10-30T13:52:22.811Z,27.61
2022-10-30T13:55:29.919Z,27.59
2022-10-30T13:58:43.404Z,27.59
2022-10-30T14:02:01.564Z,27.35
2022-10-30T14:05:16.968Z,27.16
2022-10-30T14:08:32.396Z,26.81
2022-10-30T14:11:36.585Z,26.62
2022-10-30T14:14:49.477Z,26.43
2022-10-30T14:18:33.470Z,26.45
2022-10-30T14:21:46.053Z,26.38
2022-10-30T14:24:50.277Z,26.26
2022-10-30T14:27:58.380Z,26.09
2022-10-30T14:31:04.699Z,25.85
2022-10-30T14:34:43.056Z,25.74
2022-10-30T14:37:58.777Z,25.61
2022-10-30T14:41:36.280Z,25.58
2022-10-30T14:45:01.634Z,25.44
2022-10-30T14:48:14.435Z,25.42
2022-10-30T14:51:24.946Z,25.33
2022-10-30T14:54:35.245Z,25.31
2022-10-30T14:57:48.675Z,25.29
2022-10-30T15:00:57.457Z,25.21
2022-10-30T15:04:18.975Z,25.14
2022-10-30T15:07:34.527Z,24.99
2022-10-30T15:10:43.752Z,24.89
2022-10-30T15:13:51.687Z,24.79
2022-10-30T15:16:56.135Z,24.67
2022-10-30T15:20:02.916Z,24.58
2022-10-30T15:23:13.927Z,24.45
2022-10-30T15:26:22.041Z,24.34
2022-10-30T15:29:30.681Z,24.22
2022-10-30T15:32:34.901Z,24.11
2022-10-30T15:35:39.409Z,23.92
2022-10-30T15:38:45.051Z,23.82
2022-10-30T15:41:51.958Z,23.80
2022-10-30T15:44:56.159Z,23.64
2022-10-30T15:48:04.472Z,23.63
2022-10-30T15:51:13.925Z,23.57
2022-10-30T15:54:21.635Z,23.52
2022-10-30T15:57:57.387Z,23.45
2022-10-30T16:00:59.417Z,23.30
2022-10-30T16:04:03.919Z,23.24
2022-10-30T16:07:19.758Z,23.11
2022-10-30T16:10:28.077Z,22.94
2022-10-30T16:13:32.956Z,22.91
2022-10-30T16:16:37.128Z,22.87
2022-10-30T16:19:47.176Z,22.76
2022-10-30T16:22:51.506Z,22.64
2022-10-30T16:25:59.517Z,22.52
2022-10-30T16:29:18.694Z,22.51
2022-10-30T16:32:27.323Z,22.46
2022-10-30T16:35:31.810Z,22.36
2022-10-30T16:38:38.551Z,22.35
2022-10-30T16:41:44.846Z,22.26
2022-10-30T16:44:49.555Z,22.26
2022-10-30T16:47:59.041Z,22.20
2022-10-30T16:51:06.128Z,22.08
2022-10-30T16:54:22.247Z,21.99
2022-10-30T16:57:30.650Z,21.98
2022-10-30T17:00:36.821Z,21.99
2022-10-30T17:03:44.190Z,21.95
2022-10-30T17:06:48.409Z,21.95
2022-10-30T17:09:57.211Z,21.88
2022-10-30T17:13:31.882Z,21.83
2022-10-30T17:16:39.315Z,21.82
2022-10-30T17:19:51.459Z,21.77
2022-10-30T17:23:09.240Z,21.61
2022-10-30T17:26:15.038Z,21.54
2022-10-30T17:29:47.229Z,21.47
2022-10-30T17:32:56.241Z,21.35
2022-10-30T17:36:00.899Z,21.30
2022-10-30T17:39:06.371Z,21.31
2022-10-30T17:42:13.330Z,21.43
2022-10-30T17:45:19.751Z,21.45
2022-10-30T17:48:27.748Z,21.40
2022-10-30T17:51:32.894Z,21.35
2022-10-30T17:54:38.446Z,21.33
2022-10-30T17:57:43.239Z,21.39
2022-10-30T18:00:49.704Z,21.10
2022-10-30T18:03:56.960Z,21.17
2022-10-30T18:07:01.676Z,21.17
2022-10-30T18:10:09.728Z,21.11
2022-10-30T18:13:15.648Z,20.92
2022-10-30T18:16:22.466Z,20.97
2022-10-30T18:19:26.955Z,20.89
2022-10-30T18:22:31.186Z,20.90
2022-10-30T18:25:38.702Z,20.92
2022-10-30T18:28:43.799Z,20.96
2022-10-30T18:31:49.540Z,20.90
2022-10-30T18:34:53.749Z,20.84
2022-10-30T18:37:58.446Z,20.62
2022-10-30T18:41:02.716Z,20.52
2022-10-30T18:44:11.846Z,20.57
2022-10-30T18:47:18.656Z,20.45
2022-10-30T18:50:25.755Z,20.21
2022-10-30T18:53:34.977Z,20.15
2022-10-30T18:56:47.275Z,20.10
2022-10-30T18:59:51.900Z,20.25
2022-10-30T19:02:58.679Z,20.13
2022-10-30T19:06:03.491Z,20.13
2022-10-30T19:09:07.849Z,20.14
2022-10-30T19:12:12.659Z,19.99
2022-10-30T19:15:19.498Z,20.03
2022-10-30T19:18:26.319Z,19.97
2022-10-30T19:21:34.877Z,19.88
2022-10-30T19:24:39.179Z,19.85
2022-10-30T19:27:43.480Z,19.85
2022-10-30T19:30:50.642Z,19.76
2022-10-30T19:33:57.829Z,19.68
2022-10-30T19:37:01.945Z,19.43
2022-10-30T19:40:21.185Z,19.21
2022-10-30T19:43:25.459Z,19.05
2022-10-30T19:46:29.769Z,19.32
2022-10-30T19:49:35.419Z,19.40
2022-10-30T19:52:39.586Z,19.50
2022-10-30T19:55:45.008Z,19.42
2022-10-30T19:58:50.462Z,19.58
2022-10-30T20:01:54.850Z,19.60
2022-10-30T20:05:03.479Z,19.59
2022-10-30T20:08:12.741Z,19.51
2022-10-30T20:11:16.870Z,19.67
2022-10-30T20:14:23.797Z,19.60
2022-10-30T20:17:28.096Z,19.63
2022-10-30T20:20:37.205Z,19.64
2022-10-30T20:23:41.757Z,19.54
2022-10-30T20:26:46.308Z,19.49
2022-10-30T20:29:50.568Z,19.58
2022-10-30T20:32:55.126Z,19.16
2022-10-30T20:36:00.819Z,19.19
2022-10-30T20:39:05.203Z,19.16
2022-10-30T20:42:14.296Z,19.14
2022-10-30T20:45:21.250Z,19.08
2022-10-30T20:48:25.548Z,19.10
2022-10-30T20:51:31.939Z,19.02
2022-10-30T20:54:36.121Z,19.02
2022-10-30T20:57:40.911Z,18.90
2022-10-30T21:00:45.316Z,18.76
2022-10-30T21:03:50.739Z,18.83
2022-10-30T21:06:59.301Z,18.78
2022-10-30T21:10:03.592Z,18.92
2022-10-30T21:13:09.815Z,18.63
2022-10-30T21:16:14.637Z,19.01
2022-10-30T21:19:19.043Z,18.98
2022-10-30T21:22:24.772Z,19.06
2022-10-30T21:25:29.129Z,18.76
2022-10-30T21:28:33.536Z,19.03
2022-10-30T21:31:37.889Z,18.91
2022-10-30T21:34:42.200Z,18.85
2022-10-30T21:37:48.029Z,18.97
2022-10-30T21:40:57.202Z,18.89
2022-10-30T21:44:02.491Z,19.04
2022-10-30T21:47:06.623Z,18.70
2022-10-30T21:50:12.678Z,18.68
2022-10-30T21:53:18.688Z,18.91
2022-10-30T21:56:24.495Z,18.71
2022-10-30T21:59:28.739Z,18.91
2022-10-30T22:02:33.111Z,18.87
2022-10-30T22:05:37.349Z,18.86
2022-10-30T22:08:43.117Z,18.97
2022-10-30T22:11:47.272Z,19.10
2022-10-30T22:14:51.560Z,19.11
2022-10-30T22:17:55.718Z,18.93
2022-10-30T22:21:03.663Z,19.14
2022-10-30T22:24:10.003Z,19.15
2022-10-30T22:27:14.389Z,19.20
2022-10-30T22:30:18.729Z,19.17
2022-10-30T22:33:23.498Z,19.26
2022-10-30T22:36:30.161Z,19.16
2022-10-30T22:39:35.677Z,19.21
2022-10-30T22:42:39.906Z,19.24
2022-10-30T22:45:43.921Z,19.29
2022-10-30T22:48:48.293Z,19.38
2022-10-30T22:51:52.308Z,19.40
2022-10-30T22:54:57.907Z,19.40
2022-10-30T22:58:02.427Z,19.20
2022-10-30T23:01:12.194Z,19.26
2022-10-30T23:04:16.786Z,19.08
2022-10-30T23:07:30.164Z,18.93
2022-10-30T23:10:48.567Z,18.85
2022-10-30T23:14:03.743Z,18.92
2022-10-30T23:17:18.471Z,19.02
2022-10-30T23:20:29.314Z,18.90
2022-10-30T23:23:44.026Z,18.94
2022-10-30T23:27:01.864Z,19.05
2022-10-30T23:30:17.885Z,18.71
2022-10-30T23:33:32.781Z,18.80
2022-10-30T23:36:46.114Z,18.77
2022-10-30T23:39:53.726Z,19.06
2022-10-30T23:43:10.420Z,18.75
2022-10-30T23:46:23.567Z,18.73
2022-10-30T23:49:34.539Z,18.47
2022-10-30T23:52:44.544Z,18.85
2022-10-30T23:56:00.032Z,18.63
2022-10-30T23:59:17.414Z,18.61
